createdAt,value
2019-04-07T00:01:41.166Z,25.40
2019-04-07T00:04:10.885Z,24.93
2019-04-07T00:06:40.554Z,24.87
2019-04-07T00:09:09.756Z,26.57
2019-04-07T00:11:38.657Z,25.90
2019-04-07T00:14:09.340Z,26.77
2019-04-07T00:16:39.103Z,25.30
2019-04-07T00:19:08.959Z,26.83
2019-04-07T00:21:37.972Z,28.07
2019-04-07T00:24:07.158Z,27.07
2019-04-07T00:26:36.676Z,28.20
2019-04-07T00:29:05.791Z,29.33
2019-04-07T00:31:35.213Z,29.00
2019-04-07T00:34:04.582Z,28.27
2019-04-07T00:36:34.144Z,28.37
2019-04-07T00:39:04.577Z,30.00
2019-04-07T00:41:33.441Z,29.47
2019-04-07T00:44:02.471Z,30.63
2019-04-07T00:46:33.165Z,30.93
2019-04-07T00:49:02.131Z,27.40
2019-04-07T00:51:31.196Z,32.63
2019-04-07T00:54:00.669Z,29.33
2019-04-07T00:56:30.153Z,31.30
2019-04-07T00:58:59.097Z,32.70
2019-04-07T01:01:29.591Z,33.47
2019-04-07T01:03:59.781Z,32.63
2019-04-07T01:06:29.485Z,32.90
2019-04-07T01:08:59.106Z,32.03
2019-04-07T01:11:28.865Z,32.10
2019-04-07T01:13:58.189Z,34.27
2019-04-07T01:16:27.409Z,34.07
2019-04-07T01:18:57.001Z,34.63
2019-04-07T01:21:31.689Z,33.80
2019-04-07T01:24:00.709Z,34.83
2019-04-07T01:26:29.947Z,34.67
2019-04-07T01:28:59.242Z,33.97
2019-04-07T01:31:28.911Z,34.30
2019-04-07T01:33:58.673Z,32.80
2019-04-07T01:36:29.253Z,34.40
2019-04-07T01:38:58.720Z,32.67
2019-04-07T01:41:47.223Z,33.87
2019-04-07T01:44:21.778Z,33.10
2019-04-07T01:47:09.963Z,33.27
2019-04-07T01:49:48.645Z,33.43
2019-04-07T01:52:32.799Z,33.53
2019-04-07T01:55:13.125Z,33.50
2019-04-07T01:57:59.875Z,32.87
2019-04-07T02:00:46.968Z,34.07
2019-04-07T02:03:25.354Z,33.70
2019-04-07T02:06:22.559Z,32.97
2019-04-07T02:09:09.470Z,33.83
2019-04-07T02:11:46.311Z,33.00
2019-04-07T02:14:26.998Z,32.17
2019-04-07T02:17:17.298Z,33.10
2019-04-07T02:20:05.136Z,33.47
2019-04-07T02:23:06.313Z,34.27
2019-04-07T02:25:52.699Z,35.27
2019-04-07T02:28:36.064Z,35.10
2019-04-07T02:31:15.307Z,33.83
2019-04-07T02:34:07.526Z,34.30
2019-04-07T02:37:07.998Z,34.87
2019-04-07T02:39:56.766Z,34.77
2019-04-07T02:42:43.900Z,33.90
2019-04-07T02:45:41.327Z,34.53
2019-04-07T02:48:45.136Z,34.90
2019-04-07T02:51:43.435Z,36.00
2019-04-07T02:54:33.274Z,36.87
2019-04-07T02:57:19.013Z,35.00
2019-04-07T02:59:57.844Z,35.27
2019-04-07T03:02:51.989Z,35.00
2019-04-07T03:05:34.816Z,34.97
2019-04-07T03:08:20.484Z,37.20
2019-04-07T03:11:07.538Z,36.67
2019-04-07T03:13:59.144Z,35.87
2019-04-07T03:16:52.858Z,35.43
2019-04-07T03:19:41.728Z,36.07
2019-04-07T03:22:34.043Z,36.33
2019-04-07T03:25:18.713Z,35.60
2019-04-07T03:28:12.720Z,37.33
2019-04-07T03:31:02.160Z,36.80
2019-04-07T03:33:59.620Z,35.80
2019-04-07T03:37:12.581Z,36.57
2019-04-07T03:39:26.805Z,35.67
2019-04-07T03:42:14.533Z,34.17
2019-04-07T03:45:02.371Z,35.00
2019-04-07T03:47:50.439Z,36.03
2019-04-07T03:50:34.904Z,38.50
2019-04-07T03:53:24.553Z,35.80
2019-04-07T03:56:21.951Z,37.23
2019-04-07T03:59:07.872Z,36.57
2019-04-07T04:01:53.925Z,36.87
2019-04-07T04:04:31.529Z,38.47
2019-04-07T04:07:18.687Z,38.27
2019-04-07T04:09:59.781Z,39.50
2019-04-07T04:12:37.610Z,39.83
2019-04-07T04:15:22.105Z,39.27
2019-04-07T04:17:51.840Z,39.30
2019-04-07T04:20:21.498Z,42.33
2019-04-07T04:22:52.494Z,41.20
2019-04-07T04:25:21.613Z,40.80
2019-04-07T04:27:50.896Z,39.37
2019-04-07T04:30:21.178Z,41.00
2019-04-07T04:32:52.134Z,43.90
2019-04-07T04:35:21.122Z,44.93
2019-04-07T04:37:53.448Z,46.03
2019-04-07T04:40:22.253Z,53.43
2019-04-07T04:42:53.806Z,45.07
2019-04-07T04:45:24.499Z,45.03
2019-04-07T04:47:53.868Z,46.93
2019-04-07T04:50:23.682Z,49.23
2019-04-07T04:52:52.655Z,46.47
2019-04-07T04:55:22.143Z,52.10
2019-04-07T04:57:51.260Z,47.73
2019-04-07T05:00:20.316Z,44.67
2019-04-07T05:02:49.541Z,44.13
2019-04-07T05:05:18.632Z,44.53
2019-04-07T05:07:57.156Z,45.87
2019-04-07T05:10:17.931Z,43.90
2019-04-07T05:12:48.257Z,44.63
2019-04-07T05:15:17.571Z,40.13
2019-04-07T05:17:47.453Z,42.27
2019-04-07T05:20:17.217Z,37.53
2019-04-07T05:22:46.267Z,38.53
2019-04-07T05:25:15.622Z,37.20
2019-04-07T05:27:47.032Z,36.37
2019-04-07T05:30:16.791Z,38.23
2019-04-07T05:32:45.844Z,34.93
2019-04-07T05:35:15.350Z,41.50
2019-04-07T05:37:44.680Z,38.93
2019-04-07T05:40:14.450Z,37.37
2019-04-07T05:42:43.353Z,38.13
2019-04-07T05:45:12.437Z,38.23
2019-04-07T05:47:47.334Z,38.33
2019-04-07T05:50:13.326Z,37.47
2019-04-07T05:52:42.292Z,31.90
2019-04-07T05:55:12.561Z,37.40
2019-04-07T05:57:41.459Z,32.63
2019-04-07T06:00:14.236Z,33.93
2019-04-07T06:02:41.742Z,34.37
2019-04-07T06:05:11.060Z,33.67
2019-04-07T06:07:40.106Z,34.07
2019-04-07T06:10:09.996Z,36.23
2019-04-07T06:12:41.545Z,35.50
2019-04-07T06:15:09.775Z,35.87
2019-04-07T06:17:39.102Z,36.17
2019-04-07T06:20:12.028Z,34.10
2019-04-07T06:22:38.872Z,35.67
2019-04-07T06:25:08.727Z,33.57
2019-04-07T06:27:38.368Z,33.73
2019-04-07T06:30:08.469Z,36.00
2019-04-07T06:32:38.507Z,31.80
2019-04-07T06:35:08.496Z,34.17
2019-04-07T06:37:37.470Z,35.00
2019-04-07T06:40:06.531Z,35.23
2019-04-07T06:42:35.535Z,35.90
2019-04-07T06:45:05.235Z,35.67
2019-04-07T06:47:46.591Z,36.40
2019-04-07T06:50:28.551Z,36.43
2019-04-07T06:53:17.031Z,36.23
2019-04-07T06:56:01.320Z,36.33
2019-04-07T06:58:50.610Z,34.03
2019-04-07T07:01:34.868Z,34.00
2019-04-07T07:04:25.638Z,35.10
2019-04-07T07:07:11.316Z,33.90
2019-04-07T07:10:06.300Z,34.40
2019-04-07T07:12:59.124Z,32.40
2019-04-07T07:15:44.762Z,32.83
2019-04-07T07:18:29.495Z,33.17
2019-04-07T07:21:36.522Z,33.93
2019-04-07T07:24:03.700Z,31.53
2019-04-07T07:26:35.086Z,30.57
2019-04-07T07:29:06.223Z,30.83
2019-04-07T07:31:35.981Z,31.83
2019-04-07T07:34:09.287Z,30.60
2019-04-07T07:36:39.815Z,31.03
2019-04-07T07:39:11.757Z,29.43
2019-04-07T07:41:42.245Z,31.97
2019-04-07T07:44:11.112Z,30.03
2019-04-07T07:46:39.889Z,29.83
2019-04-07T07:49:10.349Z,29.53
2019-04-07T07:51:39.827Z,30.57
2019-04-07T07:54:10.039Z,27.03
2019-04-07T07:56:43.257Z,28.77
2019-04-07T07:59:11.226Z,27.63
2019-04-07T08:01:44.270Z,28.77
2019-04-07T08:04:12.284Z,26.23
2019-04-07T08:06:41.134Z,25.90
2019-04-07T08:09:15.093Z,25.47
2019-04-07T08:11:40.585Z,28.50
2019-04-07T08:14:10.059Z,26.97
2019-04-07T08:16:39.131Z,21.43
2019-04-07T08:19:09.972Z,16.33
2019-04-07T08:21:39.128Z,14.07
2019-04-07T08:24:10.177Z,13.43
2019-04-07T08:26:54.131Z,12.77
2019-04-07T08:29:23.028Z,12.60
2019-04-07T08:31:55.185Z,12.07
2019-04-07T08:34:23.164Z,12.40
2019-04-07T08:36:52.947Z,13.23
2019-04-07T08:39:25.633Z,11.30
2019-04-07T08:41:53.325Z,12.63
2019-04-07T08:44:25.460Z,11.97
2019-04-07T08:46:54.027Z,11.00
2019-04-07T08:49:24.165Z,11.13
2019-04-07T08:51:54.915Z,10.97
2019-04-07T08:54:23.881Z,12.07
2019-04-07T08:56:56.299Z,11.80
2019-04-07T08:59:23.941Z,11.90
2019-04-07T09:01:54.251Z,11.40
2019-04-07T09:04:24.143Z,11.83
2019-04-07T09:06:54.855Z,10.70
2019-04-07T09:09:32.657Z,11.37
2019-04-07T09:11:57.022Z,11.90
2019-04-07T09:14:25.208Z,12.50
2019-04-07T09:17:30.671Z,11.90
2019-04-07T09:20:10.397Z,13.07
2019-04-07T09:22:58.119Z,13.23
2019-04-07T09:25:46.675Z,12.83
2019-04-07T09:28:31.730Z,13.10
2019-04-07T09:31:34.993Z,12.70
2019-04-07T09:34:22.281Z,12.83
2019-04-07T09:37:13.875Z,13.23
2019-04-07T09:40:06.718Z,13.23
2019-04-07T09:43:07.433Z,11.70
2019-04-07T09:45:55.411Z,12.73
2019-04-07T09:48:43.211Z,10.80
2019-04-07T09:51:37.662Z,11.63
2019-04-07T09:54:21.410Z,11.63
2019-04-07T09:57:10.773Z,12.33
2019-04-07T10:00:02.298Z,11.50
2019-04-07T10:02:56.212Z,11.77
2019-04-07T10:05:43.704Z,10.63
2019-04-07T10:08:31.619Z,11.00
2019-04-07T10:11:18.418Z,10.07
2019-04-07T10:14:12.648Z,11.03
2019-04-07T10:16:50.702Z,11.43
2019-04-07T10:19:41.304Z,12.37
2019-04-07T10:22:29.825Z,11.87
2019-04-07T10:25:14.471Z,13.90
2019-04-07T10:28:11.608Z,13.00
2019-04-07T10:31:11.274Z,14.80
2019-04-07T10:33:49.521Z,14.93
2019-04-07T10:36:36.263Z,14.10
2019-04-07T10:39:21.724Z,12.57
2019-04-07T10:42:08.748Z,13.07
2019-04-07T10:45:05.941Z,13.77
2019-04-07T10:47:56.775Z,13.97
2019-04-07T10:50:39.254Z,13.63
2019-04-07T10:53:20.955Z,13.93
2019-04-07T10:56:17.650Z,10.80
2019-04-07T10:59:05.551Z,15.27
2019-04-07T11:02:10.138Z,15.87
2019-04-07T11:05:10.097Z,15.37
2019-04-07T11:07:57.030Z,16.00
2019-04-07T11:10:47.535Z,15.40
2019-04-07T11:13:51.661Z,16.70
2019-04-07T11:16:56.096Z,17.77
2019-04-07T11:19:50.068Z,18.03
2019-04-07T11:22:37.032Z,17.47
2019-04-07T11:25:38.474Z,16.90
2019-04-07T11:28:31.819Z,18.13
2019-04-07T11:31:32.214Z,18.47
2019-04-07T11:34:19.390Z,17.83
2019-04-07T11:37:09.886Z,18.57
2019-04-07T11:40:02.553Z,17.90
2019-04-07T11:42:39.369Z,19.43
2019-04-07T11:45:53.347Z,19.77
2019-04-07T11:48:25.817Z,19.63
2019-04-07T11:51:22.746Z,19.00
2019-04-07T11:54:10.331Z,18.17
2019-04-07T11:56:59.706Z,19.53
2019-04-07T11:59:51.226Z,20.43
2019-04-07T12:02:43.339Z,19.93
2019-04-07T12:05:31.056Z,18.97
2019-04-07T12:08:36.324Z,17.07
2019-04-07T12:11:38.744Z,19.90
2019-04-07T12:14:32.243Z,16.27
2019-04-07T12:17:30.054Z,20.07
2019-04-07T12:20:15.171Z,19.23
2019-04-07T12:23:06.348Z,20.47
2019-04-07T12:26:04.306Z,19.47
2019-04-07T12:29:08.010Z,20.60
2019-04-07T12:32:02.362Z,20.53
2019-04-07T12:34:57.057Z,21.20
2019-04-07T12:37:50.689Z,19.93
2019-04-07T12:40:48.630Z,18.00
2019-04-07T12:43:45.708Z,14.53
2019-04-07T12:46:30.050Z,20.20
2019-04-07T12:49:24.276Z,19.63
2019-04-07T12:52:11.759Z,21.67
2019-04-07T12:55:05.885Z,20.00
2019-04-07T12:57:54.367Z,20.50
2019-04-07T13:00:53.108Z,19.50
2019-04-07T13:03:28.882Z,19.40
2019-04-07T13:06:14.605Z,19.30
2019-04-07T13:09:01.702Z,18.50
2019-04-07T13:11:39.488Z,19.57
2019-04-07T13:14:24.544Z,20.07
2019-04-07T13:17:05.375Z,14.87
2019-04-07T13:19:58.637Z,18.20
2019-04-07T13:22:53.129Z,19.40
2019-04-07T13:26:00.650Z,16.03
2019-04-07T13:28:48.905Z,19.27
2019-04-07T13:31:37.287Z,18.93
2019-04-07T13:34:24.477Z,17.67
2019-04-07T13:37:09.154Z,16.63
2019-04-07T13:40:00.086Z,16.50
2019-04-07T13:42:52.087Z,18.13
2019-04-07T13:45:44.535Z,17.73
2019-04-07T13:48:32.351Z,19.20
2019-04-07T13:51:21.455Z,18.40
2019-04-07T13:54:18.957Z,19.07
2019-04-07T13:57:07.650Z,16.63
2019-04-07T13:59:50.033Z,17.43
2019-04-07T14:02:41.037Z,17.80
2019-04-07T14:05:38.948Z,17.73
2019-04-07T14:08:30.717Z,18.50
2019-04-07T14:11:24.966Z,16.67
2019-04-07T14:14:25.587Z,18.00
2019-04-07T14:17:16.747Z,17.87
2019-04-07T14:20:04.944Z,18.07
2019-04-07T14:22:59.149Z,17.87
2019-04-07T14:25:47.439Z,18.73
2019-04-07T14:28:26.615Z,18.90
2019-04-07T14:31:29.954Z,18.60
2019-04-07T14:34:27.263Z,18.67
2019-04-07T14:37:05.395Z,18.60
2019-04-07T14:39:43.383Z,18.47
2019-04-07T14:42:24.076Z,18.03
2019-04-07T14:45:02.024Z,18.03
2019-04-07T14:47:48.575Z,18.70
2019-04-07T14:50:42.921Z,19.00
2019-04-07T14:53:33.715Z,18.77
2019-04-07T14:56:11.034Z,18.37
2019-04-07T14:59:10.434Z,17.50
2019-04-07T15:01:54.368Z,18.13
2019-04-07T15:04:26.702Z,17.73
2019-04-07T15:07:14.089Z,18.67
2019-04-07T15:09:53.533Z,18.37
2019-04-07T15:12:31.741Z,18.03
2019-04-07T15:15:05.543Z,18.53
2019-04-07T15:17:31.847Z,17.97
2019-04-07T15:20:01.429Z,19.00
2019-04-07T15:22:31.316Z,17.87
2019-04-07T15:25:01.454Z,18.50
2019-04-07T15:27:31.526Z,18.17
2019-04-07T15:30:04.301Z,17.80
2019-04-07T15:32:34.570Z,18.17
2019-04-07T15:35:04.988Z,13.57
2019-04-07T15:37:34.669Z,17.23
2019-04-07T15:40:06.064Z,16.97
2019-04-07T15:42:40.154Z,18.63
2019-04-07T15:45:06.408Z,19.40
2019-04-07T15:47:36.006Z,20.23
2019-04-07T15:50:05.410Z,19.27
2019-04-07T15:52:34.767Z,19.17
2019-04-07T15:55:03.947Z,18.93
2019-04-07T15:57:36.100Z,21.33
2019-04-07T16:00:05.616Z,20.60
2019-04-07T16:02:34.614Z,21.17
2019-04-07T16:05:03.758Z,21.67
2019-04-07T16:07:32.818Z,20.57
2019-04-07T16:10:01.977Z,19.57
2019-04-07T16:12:42.845Z,20.83
2019-04-07T16:15:04.172Z,20.50
2019-04-07T16:17:34.699Z,20.37
2019-04-07T16:20:04.424Z,21.03
2019-04-07T16:22:33.646Z,20.60
2019-04-07T16:25:02.710Z,19.27
2019-04-07T16:27:32.997Z,21.30
2019-04-07T16:30:07.427Z,19.77
2019-04-07T16:32:37.689Z,19.53
2019-04-07T16:35:07.356Z,19.93
2019-04-07T16:37:37.565Z,20.60
2019-04-07T16:40:13.086Z,21.30
2019-04-07T16:43:00.230Z,21.23
2019-04-07T16:45:17.791Z,22.23
2019-04-07T16:47:47.910Z,20.33
2019-04-07T16:50:18.865Z,20.83
2019-04-07T16:52:53.265Z,21.53
2019-04-07T16:55:48.986Z,20.63
2019-04-07T16:58:16.402Z,20.10
2019-04-07T17:00:45.494Z,20.53
2019-04-07T17:03:15.277Z,19.37
2019-04-07T17:05:45.143Z,19.87
2019-04-07T17:08:18.567Z,19.53
2019-04-07T17:10:46.487Z,20.07
2019-04-07T17:13:20.478Z,21.13
2019-04-07T17:15:47.714Z,20.77
2019-04-07T17:18:36.653Z,20.20
2019-04-07T17:21:09.480Z,21.07
2019-04-07T17:23:39.721Z,20.70
2019-04-07T17:26:09.494Z,20.50
2019-04-07T17:28:38.927Z,20.97
2019-04-07T17:31:08.991Z,20.67
2019-04-07T17:33:39.389Z,20.63
2019-04-07T17:36:09.535Z,20.80
2019-04-07T17:38:56.596Z,20.37
2019-04-07T17:41:25.768Z,20.60
2019-04-07T17:44:24.490Z,21.23
2019-04-07T17:47:23.301Z,21.27
2019-04-07T17:50:20.675Z,22.10
2019-04-07T17:53:13.256Z,23.50
2019-04-07T17:56:10.877Z,23.50
2019-04-07T17:58:49.239Z,22.57
2019-04-07T18:01:35.867Z,22.43
2019-04-07T18:04:18.823Z,23.67
2019-04-07T18:07:06.224Z,25.60
2019-04-07T18:09:53.315Z,28.00
2019-04-07T18:12:40.106Z,29.20
2019-04-07T18:15:27.398Z,22.40
2019-04-07T18:18:31.591Z,22.80
2019-04-07T18:21:19.262Z,21.23
2019-04-07T18:24:16.797Z,21.80
2019-04-07T18:27:10.078Z,22.03
2019-04-07T18:29:51.432Z,22.67
2019-04-07T18:32:41.876Z,22.37
2019-04-07T18:35:22.661Z,23.23
2019-04-07T18:38:12.077Z,22.20
2019-04-07T18:40:58.308Z,22.30
2019-04-07T18:44:06.719Z,22.43
2019-04-07T18:46:55.098Z,22.37
2019-04-07T18:49:57.114Z,24.27
2019-04-07T18:52:46.812Z,22.93
2019-04-07T18:55:26.172Z,22.10
2019-04-07T18:58:20.394Z,22.10
2019-04-07T19:01:08.819Z,22.50
2019-04-07T19:04:10.022Z,26.97
2019-04-07T19:07:07.878Z,24.97
2019-04-07T19:10:06.490Z,20.87
2019-04-07T19:13:03.927Z,22.80
2019-04-07T19:15:47.544Z,22.53
2019-04-07T19:18:45.180Z,22.77
2019-04-07T19:21:47.556Z,21.57
2019-04-07T19:24:37.850Z,21.23
2019-04-07T19:27:22.082Z,22.53
2019-04-07T19:30:26.859Z,23.30
2019-04-07T19:33:27.067Z,24.10
2019-04-07T19:36:16.793Z,24.00
2019-04-07T19:39:03.051Z,22.20
2019-04-07T19:41:42.449Z,22.63
2019-04-07T19:44:37.150Z,22.43
2019-04-07T19:47:14.324Z,21.57
2019-04-07T19:50:01.699Z,22.43
2019-04-07T19:52:50.449Z,22.47
2019-04-07T19:55:41.677Z,21.60
2019-04-07T19:58:32.625Z,22.67
2019-04-07T20:01:08.427Z,22.57
2019-04-07T20:03:59.842Z,24.57
2019-04-07T20:06:49.221Z,22.87
2019-04-07T20:09:27.801Z,23.60
2019-04-07T20:12:16.337Z,23.43
2019-04-07T20:15:06.917Z,23.13
2019-04-07T20:17:54.986Z,22.50
2019-04-07T20:20:51.244Z,23.00
2019-04-07T20:23:46.836Z,21.73
2019-04-07T20:26:43.544Z,21.47
2019-04-07T20:29:45.990Z,22.83
2019-04-07T20:32:37.403Z,22.20
2019-04-07T20:35:24.705Z,24.00
2019-04-07T20:38:16.880Z,22.40
2019-04-07T20:41:21.770Z,21.00
2019-04-07T20:44:09.099Z,18.93
2019-04-07T20:46:59.361Z,19.27
2019-04-07T20:49:47.807Z,21.03
2019-04-07T20:52:38.364Z,21.93
2019-04-07T20:55:25.737Z,22.23
2019-04-07T20:58:47.564Z,21.67
2019-04-07T21:01:35.372Z,17.50
2019-04-07T21:04:33.104Z,18.70
2019-04-07T21:07:21.079Z,18.37
2019-04-07T21:10:13.113Z,14.10
2019-04-07T21:12:58.062Z,15.77
2019-04-07T21:15:57.626Z,18.23
2019-04-07T21:18:40.340Z,16.07
2019-04-07T21:21:34.894Z,16.60
2019-04-07T21:24:29.274Z,18.43
2019-04-07T21:27:12.158Z,18.93
2019-04-07T21:29:55.804Z,17.60
2019-04-07T21:32:52.590Z,18.97
2019-04-07T21:35:43.711Z,19.03
2019-04-07T21:38:29.751Z,18.23
2019-04-07T21:41:36.561Z,18.60
2019-04-07T21:44:34.622Z,17.40
2019-04-07T21:47:26.603Z,19.47
2019-04-07T21:50:28.996Z,18.00
2019-04-07T21:53:25.722Z,17.90
2019-04-07T21:56:00.157Z,18.07
2019-04-07T21:58:57.987Z,18.70
2019-04-07T22:01:39.889Z,20.17
2019-04-07T22:04:25.315Z,17.43
2019-04-07T22:07:15.315Z,15.53
2019-04-07T22:09:56.705Z,20.13
2019-04-07T22:12:28.639Z,18.53
2019-04-07T22:14:56.149Z,19.70
2019-04-07T22:17:25.131Z,20.00
2019-04-07T22:19:54.305Z,21.23
2019-04-07T22:22:24.146Z,21.17
2019-04-07T22:24:53.889Z,19.93
2019-04-07T22:27:26.043Z,19.63
2019-04-07T22:29:53.485Z,19.40
2019-04-07T22:32:24.359Z,18.20
2019-04-07T22:34:53.376Z,19.10
2019-04-07T22:37:23.504Z,19.33
2019-04-07T22:39:53.338Z,18.77
2019-04-07T22:42:22.473Z,17.73
2019-04-07T22:44:54.169Z,16.97
2019-04-07T22:47:23.656Z,16.97
2019-04-07T22:49:52.765Z,17.80
2019-04-07T22:52:22.531Z,17.30
2019-04-07T22:54:52.128Z,17.23
2019-04-07T22:57:21.819Z,17.90
2019-04-07T22:59:51.430Z,16.37
2019-04-07T23:02:20.465Z,18.00
2019-04-07T23:04:50.266Z,16.83
2019-04-07T23:07:20.176Z,16.93
2019-04-07T23:09:49.645Z,18.67
2019-04-07T23:12:18.939Z,17.90
2019-04-07T23:14:49.722Z,16.63
2019-04-07T23:17:19.444Z,17.30
2019-04-07T23:19:48.622Z,17.30
2019-04-07T23:22:18.062Z,16.80
2019-04-07T23:24:50.875Z,17.07
2019-04-07T23:27:20.078Z,17.90
2019-04-07T23:29:49.109Z,16.87
2019-04-07T23:32:19.119Z,16.40
2019-04-07T23:34:48.415Z,17.40
2019-04-07T23:37:17.372Z,17.10
2019-04-07T23:39:47.247Z,16.67
2019-04-07T23:42:17.393Z,16.93
2019-04-07T23:44:46.233Z,18.70
2019-04-07T23:47:15.347Z,18.80
2019-04-07T23:49:44.739Z,17.30
2019-04-07T23:52:14.543Z,18.87
2019-04-07T23:54:43.606Z,18.87
2019-04-07T23:57:13.432Z,19.23
2019-04-07T23:59:42.619Z,19.00
